Time;durP1;ratioP1;P1;durP2;ratioP2;P2;SDS_P1;SDS_P2;PMS_P1;PMS_P2;Temp;Humidity;BMP_temperature;BMP_pressure;BME280_temperature;BME280_humidity;BME280_pressure;Samples;Min_cycle;Max_cycle;Signal;HPM_P1;HPM_P2
2023/09/24 00:02:12;;;;;;;8.17;2.27;;;;;;;14.45;67.53;101338.25;4970769;28;20214;-71
2023/09/24 00:04:41;;;;;;;4.93;2.07;;;;;;;14.53;67.48;101341.00;4968490;28;20199;-70
2023/09/24 00:07:10;;;;;;;6.27;2.07;;;;;;;14.65;67.37;101333.59;4969179;28;20211;-70
2023/09/24 00:09:38;;;;;;;6.43;2.40;;;;;;;14.73;66.58;101341.66;4968981;28;20299;-68
2023/09/24 00:12:06;;;;;;;5.13;2.10;;;;;;;14.79;66.26;101345.53;4971016;28;20238;-71
2023/09/24 00:14:33;;;;;;;4.47;2.47;;;;;;;14.58;67.47;101346.72;4970028;28;20210;-71
2023/09/24 00:17:01;;;;;;;5.07;2.03;;;;;;;14.32;68.73;101349.28;4968726;28;20544;-71
2023/09/24 00:19:29;;;;;;;7.50;1.97;;;;;;;14.29;68.81;101351.41;4969388;28;20202;-72
2023/09/24 00:21:58;;;;;;;3.97;1.87;;;;;;;14.32;68.80;101349.28;4968013;28;20211;-72
2023/09/24 00:24:27;;;;;;;6.03;1.63;;;;;;;14.45;68.43;101353.41;4968511;28;20203;-72
2023/09/24 00:26:54;;;;;;;4.43;1.57;;;;;;;14.34;68.58;101354.44;4969507;28;20330;-72
2023/09/24 00:29:22;;;;;;;3.97;1.73;;;;;;;14.26;68.60;101360.53;4969448;28;20214;-71
2023/09/24 00:31:50;;;;;;;3.57;1.50;;;;;;;14.10;69.48;101360.34;4969434;28;20230;-69
2023/09/24 00:34:18;;;;;;;5.50;2.10;;;;;;;14.18;69.50;101362.28;4969382;28;20297;-70
2023/09/24 00:36:46;;;;;;;4.90;1.70;;;;;;;14.29;68.98;101362.91;4968775;28;20218;-70
2023/09/24 00:39:16;;;;;;;4.90;1.87;;;;;;;14.31;69.17;101370.75;4969766;28;20269;-70
2023/09/24 00:41:45;;;;;;;4.10;1.93;;;;;;;14.22;69.49;101374.34;4969217;28;20289;-72
2023/09/24 00:44:14;;;;;;;5.57;2.03;;;;;;;14.24;69.33;101377.69;4969204;28;20214;-72
2023/09/24 00:46:45;;;;;;;5.60;2.03;;;;;;;14.13;69.65;101375.22;4965889;28;20208;-71
2023/09/24 00:49:14;;;;;;;4.47;2.20;;;;;;;14.11;69.87;101377.19;4969446;28;20282;-71
2023/09/24 00:51:43;;;;;;;4.60;2.10;;;;;;;14.05;70.29;101389.31;4969145;28;20241;-70
2023/09/24 00:54:12;;;;;;;8.93;2.47;;;;;;;14.11;69.78;101369.19;4968135;28;20764;-71
2023/09/24 00:56:42;;;;;;;5.93;2.40;;;;;;;14.12;69.56;101376.22;4968540;28;20562;-70
2023/09/24 00:59:10;;;;;;;7.13;2.50;;;;;;;14.14;70.01;101377.75;4969261;28;20207;-71
2023/09/24 01:01:38;;;;;;;6.90;2.37;;;;;;;14.26;69.18;101375.69;4967261;28;20237;-71
2023/09/24 01:04:07;;;;;;;8.43;2.53;;;;;;;14.31;68.99;101378.78;4968774;28;20211;-72
2023/09/24 01:06:36;;;;;;;4.17;2.30;;;;;;;14.30;69.04;101377.94;4967595;28;20246;-71
2023/09/24 01:09:08;;;;;;;7.03;2.53;;;;;;;14.22;69.52;101374.34;4968128;28;20301;-70
2023/09/24 01:11:38;;;;;;;6.93;2.80;;;;;;;14.12;70.15;101368.22;4968865;28;20230;-74
2023/09/24 01:14:08;;;;;;;4.53;2.10;;;;;;;14.07;70.24;101371.31;4968600;28;20698;-71
2023/09/24 01:16:37;;;;;;;5.33;2.53;;;;;;;14.16;69.57;101373.09;4967098;28;20689;-70
2023/09/24 01:19:06;;;;;;;5.73;2.10;;;;;;;14.21;69.21;101369.97;4969088;28;20210;-71
2023/09/24 01:21:34;;;;;;;7.63;2.53;;;;;;;14.13;69.94;101369.91;4967393;28;20266;-72
2023/09/24 01:24:04;;;;;;;7.23;3.00;;;;;;;13.92;70.90;101365.66;4967224;28;20218;-70
2023/09/24 01:26:32;;;;;;;8.77;2.50;;;;;;;13.79;71.98;101373.16;4967413;28;20210;-71
2023/09/24 01:28:59;;;;;;;6.13;2.90;;;;;;;13.71;71.83;101373.06;4967748;28;20302;-72
2023/09/24 01:31:27;;;;;;;5.20;2.23;;;;;;;13.76;71.87;101380.59;4968846;28;20353;-72
2023/09/24 01:33:55;;;;;;;6.43;2.37;;;;;;;13.84;71.10;101376.22;4968693;28;20589;-71
2023/09/24 01:36:23;;;;;;;5.93;2.23;;;;;;;13.82;71.24;101378.19;4969131;28;20213;-74
2023/09/24 01:38:50;;;;;;;6.73;2.43;;;;;;;13.90;70.63;101382.78;4968308;28;20209;-71
2023/09/24 01:41:20;;;;;;;5.17;2.50;;;;;;;14.04;69.63;101382.28;4968471;28;20224;-72
2023/09/24 01:43:48;;;;;;;4.87;2.20;;;;;;;14.11;69.62;101371.88;4967805;28;20700;-70
2023/09/24 01:46:17;;;;;;;6.43;2.60;;;;;;;14.16;69.08;101380.28;4968644;28;20318;-72
2023/09/24 01:48:49;;;;;;;6.00;2.40;;;;;;;14.21;69.09;101389.50;4967464;28;20645;-71
2023/09/24 01:51:17;;;;;;;6.97;2.70;;;;;;;14.28;68.66;101384.41;4966834;28;20233;-71
2023/09/24 01:53:45;;;;;;;5.63;2.73;;;;;;;14.31;68.61;101384.09;4968026;28;20288;-70
2023/09/24 01:56:13;;;;;;;6.50;3.13;;;;;;;14.35;68.54;101382.81;4968013;28;20209;-71
2023/09/24 01:58:43;;;;;;;7.60;2.97;;;;;;;14.37;68.49;101388.84;4967834;28;20210;-71
2023/09/24 02:01:11;;;;;;;5.37;2.83;;;;;;;14.32;68.28;101381.28;4968685;28;20233;-72
2023/09/24 02:03:39;;;;;;;8.20;2.60;;;;;;;14.30;68.21;101390.44;4968317;28;20199;-73
2023/09/24 02:06:07;;;;;;;7.27;2.50;;;;;;;14.26;68.35;101381.88;4968110;28;20202;-71
2023/09/24 02:08:35;;;;;;;7.07;2.60;;;;;;;14.28;68.34;101384.41;4967851;28;20226;-72
2023/09/24 02:11:03;;;;;;;8.63;2.77;;;;;;;14.25;68.25;101379.34;4966215;28;20264;-71
2023/09/24 02:13:31;;;;;;;6.10;2.80;;;;;;;14.18;68.52;101379.13;4967629;28;20789;-72
2023/09/24 02:16:01;;;;;;;6.53;2.47;;;;;;;14.14;68.67;101382.25;4967173;28;20206;-72
2023/09/24 02:18:32;;;;;;;4.60;2.50;;;;;;;14.10;69.08;101387.03;4966882;28;20239;-70
2023/09/24 02:21:01;;;;;;;7.13;2.80;;;;;;;14.05;69.07;101380.47;4968661;28;20211;-71
2023/09/24 02:23:29;;;;;;;6.40;1.90;;;;;;;14.08;68.78;101388.16;4967031;28;20766;-70
2023/09/24 02:25:57;;;;;;;5.43;2.10;;;;;;;14.06;68.90;101384.81;4968325;28;20223;-73
2023/09/24 02:28:25;;;;;;;4.00;2.20;;;;;;;14.03;68.86;101398.44;4966132;28;20221;-72
2023/09/24 02:30:53;;;;;;;5.90;2.23;;;;;;;14.12;68.24;101401.06;4966407;28;20760;-71
2023/09/24 02:33:23;;;;;;;7.77;2.30;;;;;;;14.10;68.07;101407.53;4966423;28;20288;-71
2023/09/24 02:35:51;;;;;;;4.33;2.00;;;;;;;14.05;67.96;101409.81;4967888;28;20210;-70
2023/09/24 02:38:19;;;;;;;5.10;2.40;;;;;;;13.97;68.68;101407.03;4967018;28;20212;-70
2023/09/24 02:40:47;;;;;;;6.10;2.90;;;;;;;13.97;68.94;101412.38;4965640;28;20297;-72
2023/09/24 02:43:15;;;;;;;5.50;2.10;;;;;;;13.94;69.38;101409.00;4964386;28;20763;-71
2023/09/24 02:45:43;;;;;;;7.77;2.43;;;;;;;13.95;68.98;101409.84;4967771;28;20216;-70
2023/09/24 02:48:12;;;;;;;3.80;1.90;;;;;;;13.99;69.08;101413.03;4965689;28;20207;-72
2023/09/24 02:50:41;;;;;;;3.77;2.23;;;;;;;14.02;68.61;101415.41;4966754;28;20329;-71
2023/09/24 02:53:09;;;;;;;4.90;2.27;;;;;;;13.96;68.85;101405.34;4965905;28;20234;-71
2023/09/24 02:55:37;;;;;;;4.83;2.27;;;;;;;13.97;68.55;101415.88;4967150;28;20222;-70
2023/09/24 02:58:05;;;;;;;4.70;2.13;;;;;;;14.03;68.58;101407.28;4966591;28;20207;-71
2023/09/24 03:00:36;;;;;;;7.23;2.37;;;;;;;14.07;67.54;101405.16;4965192;28;20246;-72
2023/09/24 03:03:05;;;;;;;5.77;2.00;;;;;;;13.97;68.14;101407.03;4966502;28;20213;-70
2023/09/24 03:05:34;;;;;;;5.57;2.20;;;;;;;13.92;68.20;101421.63;4967007;28;20206;-71
2023/09/24 03:08:05;;;;;;;7.53;2.47;;;;;;;13.73;69.48;101424.38;4969987;28;20559;-71
2023/09/24 03:10:34;;;;;;;5.73;1.90;;;;;;;13.59;70.10;101429.34;4969987;28;20755;-71
2023/09/24 03:13:04;;;;;;;5.07;2.40;;;;;;;13.52;70.38;101437.06;4969183;28;20342;-72
2023/09/24 03:15:32;;;;;;;6.27;2.30;;;;;;;13.37;70.60;101431.34;4969180;28;20314;-72
2023/09/24 03:18:01;;;;;;;4.83;2.10;;;;;;;13.24;71.74;101440.63;4968699;28;20941;-73
2023/09/24 03:20:29;;;;;;;4.87;2.33;;;;;;;13.19;72.25;101433.88;4971161;28;20211;-72
2023/09/24 03:23:02;;;;;;;5.80;2.43;;;;;;;13.19;72.39;101439.19;4970384;28;20329;-73
2023/09/24 03:25:32;;;;;;;5.97;2.03;;;;;;;13.31;71.61;101447.06;4969172;28;20261;-71
2023/09/24 03:28:01;;;;;;;5.53;2.33;;;;;;;13.47;70.79;101449.97;4970235;28;20211;-72
2023/09/24 03:30:30;;;;;;;6.33;2.10;;;;;;;13.42;70.91;101449.56;4970358;28;20195;-71
2023/09/24 03:32:58;;;;;;;7.63;2.17;;;;;;;13.37;70.63;101451.84;4969274;28;20237;-71
2023/09/24 03:35:28;;;;;;;3.93;1.93;;;;;;;13.44;70.61;101458.28;4969031;28;20866;-72
2023/09/24 03:37:56;;;;;;;6.60;2.30;;;;;;;13.40;70.55;101451.53;4969213;28;20734;-73
2023/09/24 03:40:27;;;;;;;3.93;2.27;;;;;;;13.48;69.56;101455.16;4967636;28;20208;-72
2023/09/24 03:42:56;;;;;;;5.47;2.47;;;;;;;13.48;69.72;101455.16;4968596;28;20263;-73
2023/09/24 03:45:25;;;;;;;7.20;2.73;;;;;;;13.43;69.69;101456.59;4968358;28;20207;-71
2023/09/24 03:47:54;;;;;;;7.63;2.23;;;;;;;13.46;69.61;101459.78;4968412;28;20199;-72
2023/09/24 03:50:22;;;;;;;5.60;2.50;;;;;;;13.41;69.92;101461.19;4968998;28;20311;-71
2023/09/24 03:52:51;;;;;;;5.00;2.27;;;;;;;13.40;70.20;101459.53;4966605;28;20318;-71
2023/09/24 03:55:19;;;;;;;4.63;2.33;;;;;;;13.43;70.11;101461.91;4967737;28;20207;-71
2023/09/24 03:57:48;;;;;;;6.83;1.87;;;;;;;13.51;69.87;101470.03;4968730;28;20211;-71
2023/09/24 04:00:18;;;;;;;6.87;2.73;;;;;;;13.63;68.84;101479.56;4968011;28;20205;-71
2023/09/24 04:02:48;;;;;;;5.57;2.50;;;;;;;13.46;69.24;101469.59;4968670;28;20207;-71
2023/09/24 04:05:21;;;;;;;4.93;2.33;;;;;;;13.36;69.82;101466.13;4968826;28;20225;-71
2023/09/24 04:07:50;;;;;;;3.97;1.77;;;;;;;13.30;70.11;101470.19;4968715;28;20646;-72
2023/09/24 04:10:19;;;;;;;5.53;1.70;;;;;;;13.34;70.17;101471.59;4968700;28;20229;-70
2023/09/24 04:12:50;;;;;;;6.07;2.20;;;;;;;13.48;68.82;101483.63;4967820;28;20940;-70
2023/09/24 04:15:22;;;;;;;8.27;3.57;;;;;;;13.47;68.65;101479.28;4969076;28;20927;-70
2023/09/24 04:17:50;;;;;;;6.03;2.23;;;;;;;13.41;68.79;101479.84;4969043;28;20203;-71
2023/09/24 04:20:20;;;;;;;5.37;2.07;;;;;;;13.45;68.54;101486.59;4967569;28;20211;-73
2023/09/24 04:22:49;;;;;;;11.03;2.67;;;;;;;13.47;68.46;101481.94;4970058;28;20243;-70
2023/09/24 04:25:21;;;;;;;4.73;2.03;;;;;;;13.51;68.06;101486.00;4969669;28;20215;-74
2023/09/24 04:27:49;;;;;;;5.60;1.87;;;;;;;13.42;68.40;101489.53;4968094;28;20290;-71
2023/09/24 04:30:17;;;;;;;4.43;1.77;;;;;;;13.29;69.47;101491.63;4969325;28;20217;-74
2023/09/24 04:32:51;;;;;;;5.57;2.20;;;;;;;13.33;68.87;101485.91;4969216;28;20236;-71
2023/09/24 04:35:19;;;;;;;3.33;1.80;;;;;;;13.42;68.45;101502.84;4966854;28;20285;-71
2023/09/24 04:37:47;;;;;;;4.53;2.00;;;;;;;13.45;68.52;101502.59;4967548;28;20205;-71
2023/09/24 04:40:15;;;;;;;5.37;2.57;;;;;;;13.54;68.12;101507.88;4969472;28;20251;-71
2023/09/24 04:42:45;;;;;;;4.73;2.03;;;;;;;13.47;68.13;101513.91;4969053;28;20346;-71
2023/09/24 04:45:14;;;;;;;7.77;2.53;;;;;;;13.28;68.81;101516.63;4968086;28;20250;-71
2023/09/24 04:47:43;;;;;;;5.73;2.20;;;;;;;13.18;69.30;101520.13;4967254;28;20726;-70
2023/09/24 04:50:13;;;;;;;6.23;2.13;;;;;;;13.13;69.44;101527.66;4969027;28;20238;-71
2023/09/24 04:52:47;;;;;;;4.57;2.67;;;;;;;13.05;69.72;101527.47;4967244;28;20827;-72
2023/09/24 04:55:15;;;;;;;13.17;2.33;;;;;;;13.08;69.86;101532.53;4967829;28;20662;-72
2023/09/24 04:57:44;;;;;;;4.03;1.73;;;;;;;13.19;69.19;101531.63;4966766;28;20212;-71
2023/09/24 05:00:14;;;;;;;5.53;2.03;;;;;;;13.17;69.13;101530.91;4968677;28;20907;-71
2023/09/24 05:02:43;;;;;;;3.53;1.73;;;;;;;13.21;69.02;101542.09;4967964;28;20243;-74
2023/09/24 05:05:11;;;;;;;10.93;2.30;;;;;;;13.08;69.57;101545.84;4967672;28;20563;-71
2023/09/24 05:07:40;;;;;;;5.27;2.10;;;;;;;13.00;69.94;101556.34;4967550;28;20213;-70
2023/09/24 05:10:09;;;;;;;4.07;2.07;;;;;;;12.92;70.23;101553.53;4968421;28;20605;-71
2023/09/24 05:12:37;;;;;;;7.50;2.40;;;;;;;12.87;70.54;101553.09;4967946;28;21840;-71
2023/09/24 05:15:06;;;;;;;5.77;2.13;;;;;;;12.90;70.66;101552.00;4967534;28;20344;-71
2023/09/24 05:17:34;;;;;;;5.47;2.50;;;;;;;12.94;70.34;101556.88;4966786;28;20607;-70
2023/09/24 05:20:02;;;;;;;4.70;2.00;;;;;;;13.02;69.67;101565.03;4967347;28;20212;-71
2023/09/24 05:22:30;;;;;;;8.93;2.10;;;;;;;12.97;70.03;101567.28;4966925;28;20219;-72
2023/09/24 05:24:59;;;;;;;3.07;1.83;;;;;;;12.98;69.98;101574.28;4966170;28;20319;-70
2023/09/24 05:27:29;;;;;;;5.40;2.60;;;;;;;13.06;69.19;101571.78;4968022;28;20297;-71
2023/09/24 05:29:57;;;;;;;4.30;2.10;;;;;;;13.13;68.82;101572.94;4966315;28;20331;-72
2023/09/24 05:32:25;;;;;;;7.80;2.30;;;;;;;13.13;68.88;101561.41;4966776;28;20224;-72
2023/09/24 05:34:54;;;;;;;7.87;2.73;;;;;;;13.13;68.63;101572.94;4967050;28;20408;-72
2023/09/24 05:37:21;;;;;;;4.43;2.23;;;;;;;13.21;68.41;101579.38;4968036;28;20204;-73
2023/09/24 05:39:49;;;;;;;6.07;2.13;;;;;;;13.23;68.11;101578.28;4967323;28;20645;-69
2023/09/24 05:42:18;;;;;;;7.43;2.00;;;;;;;13.24;67.99;101597.78;4967991;28;20240;-72
2023/09/24 05:44:46;;;;;;;6.73;2.10;;;;;;;13.10;68.93;101594.50;4965625;28;20210;-71
2023/09/24 05:47:14;;;;;;;10.27;2.50;;;;;;;12.94;69.51;101604.81;4966325;28;20223;-71
2023/09/24 05:49:41;;;;;;;5.23;1.83;;;;;;;12.79;70.45;101608.84;4968278;28;20282;-72
2023/09/24 05:52:09;;;;;;;5.67;2.30;;;;;;;12.92;69.90;101612.13;4967514;28;20229;-73
2023/09/24 05:54:37;;;;;;;5.37;1.90;;;;;;;12.94;70.15;101607.47;4966284;28;20251;-70
2023/09/24 05:57:05;;;;;;;4.77;2.60;;;;;;;12.97;70.10;101609.03;4967697;28;20210;-71
2023/09/24 05:59:34;;;;;;;4.70;1.87;;;;;;;13.03;69.78;101606.66;4967390;28;20206;-70
2023/09/24 06:02:02;;;;;;;7.57;2.90;;;;;;;13.03;70.01;101614.66;4968028;28;20262;-71
2023/09/24 06:04:31;;;;;;;3.77;2.13;;;;;;;13.09;69.59;101610.63;4968003;28;20208;-71
2023/09/24 06:07:51;;;;;;;7.50;2.33;;;;;;;13.18;69.14;101613.34;5005827;23;20243;-76
2023/09/24 06:48:40;;;;;;;6.03;2.50;;;;;;;13.53;69.33;101652.78;4761016;29;20501;-75
2023/09/24 06:59:45;;;;;;;6.53;2.77;;;;;;;13.87;69.12;101653.22;4801219;29;20231;-75
2023/09/24 07:03:00;;;;;;;7.37;2.50;;;;;;;14.00;68.62;101654.75;4764280;29;20245;-75
2023/09/24 07:09:43;;;;;;;6.20;2.67;;;;;;;14.17;68.20;101649.53;4770724;29;20244;-75
2023/09/24 07:12:59;;;;;;;4.97;2.37;;;;;;;14.28;68.00;101657.38;4800983;29;20218;-78
2023/09/24 07:16:20;;;;;;;7.20;2.70;;;;;;;14.36;67.73;101659.31;4825880;29;20329;-76
2023/09/24 07:41:39;;;;;;;6.83;2.60;;;;;;;14.90;66.84;101671.13;4727844;30;20244;-72
2023/09/24 07:44:07;;;;;;;6.53;3.10;;;;;;;14.92;67.73;101675.34;4806508;29;20318;-72
2023/09/24 07:46:35;;;;;;;12.53;4.23;;;;;;;14.91;68.01;101678.16;4828199;29;20222;-74
2023/09/24 07:49:05;;;;;;;7.13;4.00;;;;;;;14.96;67.97;101673.19;4830130;29;20217;-75
2023/09/24 07:51:35;;;;;;;7.57;3.43;;;;;;;15.02;67.84;101676.16;4829807;29;21051;-72
2023/09/24 07:54:03;;;;;;;11.03;3.90;;;;;;;15.10;67.31;101664.72;4888360;29;20731;-75
2023/09/24 07:56:32;;;;;;;6.87;3.63;;;;;;;15.18;68.02;101674.66;4891702;29;20205;-70
2023/09/24 07:59:00;;;;;;;7.50;4.20;;;;;;;15.28;67.80;101668.28;4889879;29;20225;-72
2023/09/24 08:01:28;;;;;;;10.70;4.23;;;;;;;15.36;68.29;101668.38;4892454;29;21044;-74
2023/09/24 08:03:56;;;;;;;9.03;4.07;;;;;;;15.39;66.45;101670.72;4889434;29;20240;-74
2023/09/24 08:06:27;;;;;;;11.80;4.47;;;;;;;15.42;67.37;101670.44;4890010;29;20259;-70
2023/09/24 08:11:54;;;;;;;8.10;4.80;;;;;;;15.57;67.00;101673.44;4891785;29;20349;-73
2023/09/24 08:14:25;;;;;;;9.00;4.67;;;;;;;15.66;66.42;101671.69;4889950;29;20230;-72
2023/09/24 08:16:54;;;;;;;10.37;5.37;;;;;;;15.75;65.01;101676.97;4894430;29;21185;-72
2023/09/24 08:19:22;;;;;;;11.03;5.80;;;;;;;15.81;64.76;101675.53;4893438;29;20212;-73
2023/09/24 08:21:50;;;;;;;10.00;5.40;;;;;;;15.86;65.76;101680.41;4892215;29;20597;-72
2023/09/24 08:24:20;;;;;;;12.50;4.90;;;;;;;16.00;65.77;101680.75;4896776;29;20643;-73
2023/09/24 08:26:48;;;;;;;11.60;5.23;;;;;;;16.30;64.76;101675.94;4894372;29;20296;-73
2023/09/24 08:29:16;;;;;;;7.67;5.23;;;;;;;16.98;62.32;101671.50;4891970;29;20303;-72
2023/09/24 08:31:44;;;;;;;9.27;5.57;;;;;;;18.08;59.35;101671.31;4894139;29;20204;-74
2023/09/24 08:34:12;;;;;;;13.77;5.57;;;;;;;19.70;52.98;101678.84;4894352;29;20260;-72
2023/09/24 08:36:45;;;;;;;10.40;5.70;;;;;;;19.68;53.04;101670.16;4893301;29;20205;-73
2023/09/24 08:39:14;;;;;;;10.80;5.30;;;;;;;19.72;51.98;101676.81;4898165;29;20210;-73
2023/09/24 08:41:45;;;;;;;11.80;5.53;;;;;;;19.45;52.19;101678.13;4896483;29;20237;-72
2023/09/24 08:44:18;;;;;;;8.80;5.10;;;;;;;19.01;52.89;101685.06;4894461;29;20217;-72
2023/09/24 08:46:49;;;;;;;9.23;5.00;;;;;;;18.91;55.82;101690.66;4888938;29;20212;-73
2023/09/24 08:49:21;;;;;;;7.77;5.37;;;;;;;21.15;51.00;101689.28;4893911;29;20215;-73
2023/09/24 08:51:50;;;;;;;8.50;5.03;;;;;;;27.65;38.61;101680.31;4894135;29;20225;-71
2023/09/24 08:54:19;;;;;;;8.55;4.63;;;;;;;33.81;28.54;101675.97;4894492;29;20307;-73
2023/09/24 08:56:48;;;;;;;7.53;4.00;;;;;;;38.16;23.49;101663.31;4889264;29;20261;-73
2023/09/24 08:59:17;;;;;;;7.55;4.10;;;;;;;40.50;20.88;101670.75;4893492;29;20212;-72
2023/09/24 09:01:53;;;;;;;8.82;4.03;;;;;;;42.31;18.79;101651.34;4892532;29;20218;-73
2023/09/24 09:04:21;;;;;;;6.85;3.60;;;;;;;44.07;17.10;101643.88;4889766;29;20208;-74
2023/09/24 09:06:49;;;;;;;6.07;3.92;;;;;;;43.38;18.04;101658.47;4893738;29;20274;-73
2023/09/24 09:09:24;;;;;;;6.28;4.35;;;;;;;42.42;18.16;101660.22;4888889;29;20280;-73
2023/09/24 09:11:53;;;;;;;6.47;3.97;;;;;;;40.25;19.99;101663.09;4889252;29;20215;-71
2023/09/24 09:14:34;;;;;;;6.50;4.20;;;;;;;35.68;23.67;101664.41;4889654;29;20705;-70
2023/09/24 09:17:03;;;;;;;6.75;4.00;;;;;;;31.59;28.88;101657.91;4888608;29;20209;-71
2023/09/24 09:19:48;;;;;;;6.47;4.28;;;;;;;27.79;33.03;101663.78;4890297;29;20224;-73
2023/09/24 09:22:17;;;;;;;4.05;2.90;;;;;;;26.83;34.86;101664.56;4888462;29;20217;-71
2023/09/24 09:24:47;;;;;;;8.98;4.30;;;;;;;25.67;36.95;101665.16;4888873;29;20233;-72
2023/09/24 09:27:17;;;;;;;5.85;3.83;;;;;;;24.15;39.23;101661.19;4889570;29;20214;-71
2023/09/24 09:29:45;;;;;;;5.72;3.90;;;;;;;22.94;42.29;101660.22;4889551;29;20300;-72
2023/09/24 09:32:14;;;;;;;7.68;4.60;;;;;;;22.01;45.26;101657.88;4889855;29;20213;-72
2023/09/24 09:34:54;;;;;;;7.38;4.38;;;;;;;21.28;46.79;101651.72;4891365;29;20328;-72
2023/09/24 09:37:24;;;;;;;8.52;4.18;;;;;;;20.90;47.76;101652.84;4889266;29;20214;-72
2023/09/24 09:39:54;;;;;;;7.97;4.38;;;;;;;20.67;48.24;101646.75;4889093;29;20205;-72
2023/09/24 09:42:34;;;;;;;5.80;3.30;;;;;;;20.44;48.40;101636.84;4890156;29;20316;-73
2023/09/24 09:45:09;;;;;;;6.75;3.42;;;;;;;20.20;49.30;101634.38;4890394;29;20228;-73
2023/09/24 09:48:00;;;;;;;6.55;4.68;;;;;;;19.96;50.70;101631.91;4889958;29;20345;-71
2023/09/24 09:50:39;;;;;;;6.35;3.88;;;;;;;19.62;51.22;101635.00;4892672;29;20209;-71
2023/09/24 09:53:10;;;;;;;7.90;4.50;;;;;;;19.45;52.11;101624.34;4891181;29;20750;-72
2023/09/24 09:55:53;;;;;;;9.10;4.97;;;;;;;19.29;52.84;101632.50;4890149;29;20390;-73
2023/09/24 09:58:24;;;;;;;10.87;4.77;;;;;;;19.18;53.56;101628.38;4890869;29;20249;-72
2023/09/24 10:00:55;;;;;;;9.50;5.60;;;;;;;19.07;53.36;101631.47;4891574;29;20348;-71
2023/09/24 10:03:24;;;;;;;9.77;5.30;;;;;;;19.06;53.91;101632.47;4888567;29;20301;-72
2023/09/24 10:05:55;;;;;;;10.67;4.90;;;;;;;18.97;53.44;101633.53;4890854;29;20245;-72
2023/09/24 10:08:37;;;;;;;7.27;4.60;;;;;;;18.87;53.84;101618.63;4891315;29;20731;-73
2023/09/24 10:11:06;;;;;;;10.90;5.50;;;;;;;18.83;54.08;101626.19;4889859;29;20209;-71
2023/09/24 10:13:55;;;;;;;8.07;4.30;;;;;;;18.81;53.71;101620.16;4891431;29;20235;-72
2023/09/24 10:16:51;;;;;;;8.73;4.30;;;;;;;18.98;53.67;101621.75;4890125;29;20335;-73
2023/09/24 10:19:51;;;;;;;8.67;4.53;;;;;;;19.01;53.17;101607.94;4889119;29;20678;-73
2023/09/24 10:25:36;;;;;;;10.20;4.60;;;;;;;18.85;54.74;101615.25;4887761;29;20408;-70
2023/09/24 10:28:06;;;;;;;8.13;4.47;;;;;;;18.85;54.30;101616.09;4887084;29;20205;-73
2023/09/24 10:31:05;;;;;;;8.63;3.90;;;;;;;18.86;54.69;101612.41;4889145;29;20928;-73
2023/09/24 10:33:55;;;;;;;10.27;4.03;;;;;;;18.84;54.91;101602.84;4892476;29;20265;-72
2023/09/24 10:36:29;;;;;;;9.23;4.57;;;;;;;18.86;55.44;101601.66;4894499;29;20590;-72
2023/09/24 10:39:05;;;;;;;7.83;3.80;;;;;;;18.89;55.54;101600.47;4890076;29;20265;-72
2023/09/24 10:41:35;;;;;;;8.87;4.33;;;;;;;19.05;55.28;101598.53;4904108;29;20234;-72
2023/09/24 10:44:22;;;;;;;6.87;3.70;;;;;;;19.49;53.38;101600.66;4942725;29;20216;-73
2023/09/24 10:46:53;;;;;;;8.83;3.97;;;;;;;20.51;51.49;101583.06;4924660;29;20200;-71
2023/09/24 10:49:26;;;;;;;7.53;3.43;;;;;;;21.77;47.36;101580.78;4941579;29;20983;-71
2023/09/24 10:51:58;;;;;;;8.30;2.80;;;;;;;22.17;45.56;101581.13;4943209;29;20208;-72
2023/09/24 10:54:27;;;;;;;7.83;3.37;;;;;;;21.73;46.12;101580.34;4942313;29;20203;-72
2023/09/24 10:56:57;;;;;;;6.53;3.13;;;;;;;21.31;47.14;101578.47;4940311;28;20710;-71
2023/09/24 10:59:33;;;;;;;9.00;4.10;;;;;;;21.12;47.58;101581.75;4942381;29;20207;-72
2023/09/24 11:02:16;;;;;;;5.38;2.60;;;;;;;21.26;47.40;101578.22;4940901;28;20741;-72
2023/09/24 11:04:52;;;;;;;7.57;2.60;;;;;;;21.65;46.21;101575.06;4944380;29;20686;-71
2023/09/24 11:07:20;;;;;;;5.53;2.67;;;;;;;21.62;46.69;101572.78;4945051;29;20290;-73
2023/09/24 11:09:51;;;;;;;6.32;2.30;;;;;;;21.58;46.63;101576.03;4943010;29;20203;-72
2023/09/24 11:12:20;;;;;;;5.45;2.97;;;;;;;21.37;47.10;101575.00;4943679;29;20207;-71
2023/09/24 11:14:58;;;;;;;5.05;2.70;;;;;;;21.30;47.52;101574.09;4945213;28;20212;-74
2023/09/24 11:17:31;;;;;;;4.85;2.30;;;;;;;21.50;46.98;101568.09;4940194;29;20233;-71
2023/09/24 11:19:59;;;;;;;7.50;2.92;;;;;;;21.61;46.85;101563.00;4938929;29;20670;-72
2023/09/24 11:22:29;;;;;;;3.80;2.10;;;;;;;21.89;46.91;101562.19;4938336;29;20222;-72
2023/09/24 11:25:08;;;;;;;7.18;2.00;;;;;;;22.52;45.11;101561.16;4939086;28;20208;-71
2023/09/24 11:27:45;;;;;;;3.38;1.42;;;;;;;23.47;42.94;101561.13;4939552;29;20331;-72
2023/09/24 12:10:50;;;;;;;4.22;1.75;;;;;;;20.94;46.61;101530.09;4934398;29;20222;-75
2023/09/24 12:17:54;;;;;;;3.87;1.70;;;;;;;21.13;46.73;101521.41;4851272;29;20241;-72
2023/09/24 12:25:14;;;;;;;3.97;1.30;;;;;;;21.56;46.58;101514.16;4946288;29;20274;-72
2023/09/24 15:55:23;;;;;;;3.17;1.40;;;;;;;20.15;41.33;101383.63;4791853;29;20232;-72
2023/09/24 15:57:53;;;;;;;3.13;1.40;;;;;;;20.23;40.54;101386.22;4808701;29;20232;-71
2023/09/24 16:00:22;;;;;;;3.03;1.33;;;;;;;20.24;40.83;101398.66;4858508;29;20221;-71
2023/09/24 16:02:57;;;;;;;2.77;1.37;;;;;;;20.17;41.18;101395.06;4871794;29;20666;-70
2023/09/24 16:05:31;;;;;;;3.43;1.47;;;;;;;20.16;41.64;101394.22;4872808;29;20237;-71
2023/09/24 16:08:03;;;;;;;2.70;1.27;;;;;;;20.11;41.96;101388.59;4871876;29;20286;-71
2023/09/24 16:10:42;;;;;;;3.30;1.20;;;;;;;20.06;41.72;101388.28;4871662;29;20310;-70
2023/09/24 16:13:11;;;;;;;3.27;1.40;;;;;;;20.03;41.99;101396.78;4890194;29;20216;-72
2023/09/24 16:15:41;;;;;;;1.93;1.00;;;;;;;19.98;42.37;101395.63;4941879;29;20208;-71
2023/09/24 16:18:09;;;;;;;2.50;1.10;;;;;;;20.01;41.90;101392.59;4926487;29;20203;-72
2023/09/24 16:20:38;;;;;;;6.07;1.60;;;;;;;19.99;42.01;101395.47;4925737;29;20290;-72
2023/09/24 16:23:08;;;;;;;2.67;1.30;;;;;;;19.92;41.92;101395.38;4941769;28;20248;-71
2023/09/24 16:25:48;;;;;;;2.47;1.00;;;;;;;19.95;41.95;101398.72;4942959;29;20282;-72
2023/09/24 16:28:41;;;;;;;2.53;1.10;;;;;;;19.89;42.13;101405.66;4945104;29;20802;-71
2023/09/24 16:31:20;;;;;;;3.10;1.37;;;;;;;19.83;42.44;101406.44;4945626;29;20203;-72
2023/09/24 16:33:49;;;;;;;3.03;1.43;;;;;;;19.84;42.44;101402.72;4942722;29;20211;-71
2023/09/24 16:36:18;;;;;;;3.27;1.47;;;;;;;19.79;42.57;101405.94;4941903;29;20329;-72
2023/09/24 16:38:48;;;;;;;2.80;1.10;;;;;;;19.73;43.00;101400.47;4945058;29;20242;-72
2023/09/24 16:41:54;;;;;;;2.27;1.00;;;;;;;19.69;42.70;101397.34;4929461;29;20372;-71
2023/09/24 16:44:23;;;;;;;2.17;1.03;;;;;;;19.69;43.16;101393.81;4948694;29;20447;-71
2023/09/24 16:46:55;;;;;;;5.40;1.20;;;;;;;19.63;43.20;101395.38;4947886;29;20212;-73
2023/09/24 16:49:35;;;;;;;3.83;1.40;;;;;;;19.59;43.49;101388.72;4950569;29;20195;-73
2023/09/24 16:52:06;;;;;;;4.50;1.20;;;;;;;19.53;43.34;101384.88;4923122;29;20705;-71
2023/09/24 16:54:40;;;;;;;3.10;1.50;;;;;;;19.51;43.52;101386.09;4948095;29;20206;-72
2023/09/24 16:57:24;;;;;;;3.53;1.50;;;;;;;19.44;44.28;101385.94;4946093;29;20224;-72
2023/09/24 17:00:01;;;;;;;3.23;1.30;;;;;;;19.40;44.29;101379.28;4951365;29;20568;-72
2023/09/24 17:02:49;;;;;;;3.33;1.37;;;;;;;19.36;44.45;101385.19;4946222;29;20211;-73
2023/09/24 17:05:21;;;;;;;2.80;1.20;;;;;;;19.31;44.98;101379.53;4945171;29;20214;-72
2023/09/24 17:10:57;;;;;;;3.90;1.50;;;;;;;19.20;45.82;101383.50;4946071;29;20216;-73
2023/09/24 17:13:47;;;;;;;5.83;1.60;;;;;;;19.15;45.39;101383.22;4943696;28;20253;-71
2023/09/24 17:16:20;;;;;;;4.23;1.63;;;;;;;19.10;46.47;101383.75;4942027;29;20204;-71
2023/09/24 17:18:53;;;;;;;3.90;1.70;;;;;;;19.06;47.74;101382.47;4941228;28;20606;-72
2023/09/24 17:21:36;;;;;;;3.33;1.60;;;;;;;18.99;48.18;101381.53;4941990;28;20220;-71
2023/09/24 17:24:25;;;;;;;3.17;1.63;;;;;;;18.94;48.43;101389.28;4941437;29;20222;-72
2023/09/24 17:27:13;;;;;;;3.63;1.70;;;;;;;18.87;48.59;101382.97;4943260;29;20219;-72